Time;durP1;ratioP1;P1;durP2;ratioP2;P2;SDS_P1;SDS_P2;PMS_P1;PMS_P2;Temp;Humidity;BMP_temperature;BMP_pressure;BME280_temperature;BME280_humidity;BME280_pressure;Samples;Min_cycle;Max_cycle;Signal;HPM_P1;HPM_P2
2021/05/14 00:00:01;;;;;;;2.10;1.40;;;26.10;52.40;;;;;;5143092;27;20957;-40
2021/05/14 00:02:31;;;;;;;3.53;3.10;;;26.30;52.30;;;;;;5144656;27;20447;-37
2021/05/14 00:05:02;;;;;;;3.30;1.60;;;26.40;51.30;;;;;;5142896;27;20445;-40
2021/05/14 00:07:32;;;;;;;3.13;1.50;;;26.40;51.90;;;;;;5143845;27;20445;-39
2021/05/14 00:10:03;;;;;;;1.70;1.60;;;26.40;51.20;;;;;;5143342;27;20487;-40
2021/05/14 00:12:34;;;;;;;1.70;1.60;;;26.40;51.70;;;;;;5144240;27;20446;-40
2021/05/14 00:15:06;;;;;;;2.43;1.87;;;26.40;51.30;;;;;;5143300;27;20441;-39
2021/05/14 00:17:37;;;;;;;1.50;1.40;;;26.00;51.80;;;;;;5143897;27;20585;-39
2021/05/14 00:20:09;;;;;;;1.90;1.60;;;25.70;52.20;;;;;;5143027;27;20514;-37
2021/05/14 00:22:40;;;;;;;2.00;1.37;;;25.50;52.30;;;;;;5143990;27;20448;-39
2021/05/14 00:25:12;;;;;;;1.70;1.60;;;25.30;52.50;;;;;;5142408;27;20466;-40
2021/05/14 00:27:42;;;;;;;2.10;1.90;;;25.30;52.40;;;;;;5127069;27;20468;-41
2021/05/14 00:30:15;;;;;;;1.50;1.40;;;25.30;53.20;;;;;;5140561;28;20468;-39
2021/05/14 00:32:45;;;;;;;2.27;1.50;;;25.30;53.00;;;;;;5139602;28;20429;-38
2021/05/14 00:35:16;;;;;;;2.67;2.20;;;25.50;50.80;;;;;;5142501;28;20448;-40
2021/05/14 00:37:47;;;;;;;4.07;3.63;;;25.40;50.80;;;;;;5134428;28;20832;-38
2021/05/14 00:40:18;;;;;;;3.10;1.60;;;25.30;50.50;;;;;;5142186;28;20456;-38
2021/05/14 00:42:48;;;;;;;2.43;2.20;;;25.30;51.00;;;;;;5143027;28;20445;-40
2021/05/14 00:45:20;;;;;;;2.30;2.10;;;25.30;51.60;;;;;;5140041;27;20507;-40
2021/05/14 00:47:51;;;;;;;1.87;1.40;;;25.30;50.30;;;;;;5142658;28;20512;-40
2021/05/14 00:50:21;;;;;;;1.57;1.47;;;25.10;51.20;;;;;;5141863;28;20476;-40
2021/05/14 00:52:52;;;;;;;3.27;1.50;;;24.90;51.00;;;;;;5142808;27;20498;-41
2021/05/14 00:55:23;;;;;;;1.70;1.60;;;24.80;51.10;;;;;;5146855;27;20593;-41
2021/05/14 00:57:53;;;;;;;1.57;1.47;;;24.70;51.10;;;;;;5146774;27;20548;-41
2021/05/14 01:00:25;;;;;;;4.80;1.40;;;24.40;50.80;;;;;;5145932;27;20440;-40
2021/05/14 01:02:55;;;;;;;1.80;1.40;;;24.40;51.30;;;;;;5138443;27;20565;-40
2021/05/14 01:05:26;;;;;;;4.47;1.87;;;24.40;51.00;;;;;;5145679;27;20493;-41
2021/05/14 01:07:58;;;;;;;2.90;1.63;;;24.30;51.00;;;;;;5146776;27;20445;-40
2021/05/14 01:10:28;;;;;;;2.30;1.70;;;24.30;51.10;;;;;;5147032;27;20484;-40
2021/05/14 01:12:58;;;;;;;1.60;1.50;;;24.40;51.80;;;;;;5150215;27;20494;-41
2021/05/14 01:15:30;;;;;;;9.87;8.93;;;24.40;51.30;;;;;;5146567;27;20497;-40
2021/05/14 01:18:01;;;;;;;12.43;11.67;;;24.50;51.30;;;;;;5146247;27;20484;-41
2021/05/14 01:20:32;;;;;;;21.37;19.50;;;24.40;51.80;;;;;;5145853;27;20448;-40
2021/05/14 01:23:03;;;;;;;8.73;8.13;;;24.30;51.70;;;;;;5147915;27;20448;-40
2021/05/14 01:25:33;;;;;;;5.87;5.47;;;24.20;51.90;;;;;;5145947;27;20445;-41
2021/05/14 01:28:04;;;;;;;209.83;190.33;;;24.10;51.60;;;;;;5147159;27;20437;-41
2021/05/14 01:30:35;;;;;;;113.17;101.57;;;24.10;52.10;;;;;;5145728;27;20549;-41
2021/05/14 01:33:05;;;;;;;215.20;195.17;;;24.10;52.20;;;;;;5145730;27;20556;-37
2021/05/14 01:35:37;;;;;;;10.53;9.60;;;24.00;52.80;;;;;;5144199;27;20497;-39
2021/05/14 01:38:08;;;;;;;2.30;1.60;;;24.00;52.70;;;;;;5145795;27;20810;-41
2021/05/14 01:40:40;;;;;;;1.70;1.30;;;23.90;52.30;;;;;;5146039;27;20502;-41
2021/05/14 01:43:10;;;;;;;1.90;1.80;;;23.80;52.70;;;;;;5146636;27;20456;-41
2021/05/14 01:45:41;;;;;;;3.83;1.30;;;23.70;53.10;;;;;;5141221;27;20476;-39
2021/05/14 01:48:13;;;;;;;1.80;1.37;;;23.70;53.60;;;;;;5146340;27;20449;-40
2021/05/14 01:50:45;;;;;;;3.90;1.10;;;23.60;53.80;;;;;;5143249;27;20956;-40
2021/05/14 01:53:15;;;;;;;1.83;1.40;;;23.50;53.20;;;;;;5145889;27;20484;-38
2021/05/14 01:55:46;;;;;;;1.53;1.10;;;23.40;53.30;;;;;;5129112;27;20448;-40
2021/05/14 01:58:16;;;;;;;1.77;1.10;;;23.40;54.10;;;;;;5146408;27;20449;-41
2021/05/14 02:00:47;;;;;;;6.10;1.53;;;23.40;54.10;;;;;;5144937;27;20449;-41
2021/05/14 02:03:17;;;;;;;3.70;1.40;;;23.30;54.20;;;;;;5146188;27;20781;-39
2021/05/14 02:05:49;;;;;;;2.20;1.17;;;23.30;54.10;;;;;;5145600;27;20452;-41
2021/05/14 02:08:19;;;;;;;1.10;1.10;;;23.20;54.40;;;;;;5144717;27;20445;-40
2021/05/14 02:10:50;;;;;;;2.83;1.17;;;23.20;54.30;;;;;;5146407;27;20472;-40
2021/05/14 02:13:20;;;;;;;1.57;1.00;;;23.10;54.80;;;;;;5145992;27;20492;-40
2021/05/14 02:15:50;;;;;;;1.93;1.47;;;23.10;54.70;;;;;;5144708;27;20441;-40
2021/05/14 02:18:21;;;;;;;2.50;1.57;;;23.00;54.70;;;;;;5145226;27;20429;-39
2021/05/14 02:20:53;;;;;;;2.67;1.20;;;22.90;54.80;;;;;;5144644;27;20964;-40
2021/05/14 02:23:23;;;;;;;3.60;1.23;;;22.90;55.20;;;;;;5143266;27;20506;-40
2021/05/14 02:25:54;;;;;;;1.83;1.40;;;22.90;54.80;;;;;;5144409;27;20967;-39
2021/05/14 02:28:25;;;;;;;1.70;1.20;;;22.70;55.20;;;;;;5145638;27;20586;-40
2021/05/14 02:30:56;;;;;;;1.43;1.33;;;22.60;55.40;;;;;;5131330;27;20479;-40
2021/05/14 02:33:26;;;;;;;1.60;1.50;;;22.70;55.70;;;;;;5139154;27;20454;-40
2021/05/14 02:35:58;;;;;;;1.40;1.20;;;22.60;55.80;;;;;;5145599;27;20441;-40
2021/05/14 02:38:29;;;;;;;1.27;1.10;;;22.60;55.80;;;;;;5144893;27;20437;-40
2021/05/14 02:40:59;;;;;;;1.43;1.33;;;22.50;55.70;;;;;;5146430;27;20479;-40
2021/05/14 02:43:30;;;;;;;1.37;1.13;;;22.50;56.00;;;;;;5145701;27;20449;-40
2021/05/14 02:46:03;;;;;;;1.60;1.50;;;22.40;56.10;;;;;;5144958;27;20451;-38
2021/05/14 02:48:34;;;;;;;3.37;1.60;;;22.40;55.90;;;;;;5139455;27;20509;-41
2021/05/14 02:51:06;;;;;;;1.80;1.70;;;22.30;56.30;;;;;;5146977;27;20496;-40
2021/05/14 02:53:36;;;;;;;1.67;1.20;;;22.30;56.10;;;;;;5144044;27;20435;-40
2021/05/14 02:56:07;;;;;;;4.13;1.60;;;22.30;56.00;;;;;;5143507;27;20924;-40
2021/05/14 02:58:37;;;;;;;2.17;1.30;;;22.30;56.20;;;;;;5143956;27;20449;-40
2021/05/14 03:01:07;;;;;;;1.87;1.60;;;22.20;56.60;;;;;;5145434;27;20449;-39
2021/05/14 03:03:38;;;;;;;1.60;1.50;;;22.20;56.50;;;;;;5145011;27;20466;-41
2021/05/14 03:06:10;;;;;;;1.60;1.50;;;22.10;56.20;;;;;;5142692;27;20449;-41
2021/05/14 03:08:40;;;;;;;1.53;1.43;;;22.00;56.80;;;;;;5143970;27;20494;-38
2021/05/14 03:11:11;;;;;;;1.70;1.40;;;21.90;57.10;;;;;;5144705;27;20515;-39
2021/05/14 03:13:41;;;;;;;1.53;1.43;;;21.90;57.50;;;;;;5143464;27;20448;-40
2021/05/14 03:16:12;;;;;;;2.00;1.60;;;21.90;58.00;;;;;;5143640;27;20427;-39
2021/05/14 03:18:42;;;;;;;1.60;1.50;;;21.80;58.90;;;;;;5141776;27;20512;-40
2021/05/14 03:21:17;;;;;;;2.20;1.77;;;21.70;59.50;;;;;;5143684;27;20454;-42
2021/05/14 03:23:48;;;;;;;1.77;1.67;;;21.60;60.00;;;;;;5143775;27;20441;-38
2021/05/14 03:26:23;;;;;;;2.17;1.50;;;21.60;60.60;;;;;;5142490;27;20793;-39
2021/05/14 03:28:54;;;;;;;2.53;1.80;;;21.50;62.50;;;;;;5140356;27;20470;-39
2021/05/14 03:31:25;;;;;;;1.53;1.43;;;21.40;63.30;;;;;;5143735;27;20483;-39
2021/05/14 03:33:55;;;;;;;1.70;1.60;;;21.40;64.20;;;;;;5143872;27;20574;-40
2021/05/14 03:36:27;;;;;;;3.23;1.23;;;21.30;64.70;;;;;;5143738;27;20441;-40
2021/05/14 03:38:58;;;;;;;1.53;1.43;;;21.20;65.50;;;;;;5141654;27;20472;-39
2021/05/14 03:41:44;;;;;;;1.60;1.50;;;21.20;66.70;;;;;;5143512;27;20472;-40
2021/05/14 03:44:14;;;;;;;1.73;1.63;;;21.10;67.10;;;;;;5142147;27;20427;-41
2021/05/14 03:46:45;;;;;;;3.20;1.60;;;21.00;67.90;;;;;;5142855;27;20480;-40
2021/05/14 03:49:16;;;;;;;1.67;1.57;;;21.00;68.40;;;;;;5142633;27;20452;-41
2021/05/14 03:51:47;;;;;;;1.97;1.70;;;21.00;68.80;;;;;;5143451;27;20480;-38
2021/05/14 03:54:19;;;;;;;2.17;1.70;;;21.00;69.50;;;;;;5143745;27;20465;-40
2021/05/14 03:56:50;;;;;;;2.27;1.70;;;20.90;69.90;;;;;;5144234;27;20526;-39
2021/05/14 03:59:20;;;;;;;2.90;1.83;;;20.90;70.40;;;;;;5142685;27;20423;-38
2021/05/14 04:01:51;;;;;;;2.30;1.77;;;20.80;71.10;;;;;;5143210;27;20448;-38
2021/05/14 04:04:23;;;;;;;2.70;1.60;;;20.70;71.40;;;;;;5142644;27;20471;-40
2021/05/14 04:06:55;;;;;;;2.77;2.07;;;20.70;71.60;;;;;;5143263;27;20444;-37
2021/05/14 04:09:28;;;;;;;1.80;1.40;;;20.70;72.30;;;;;;5142413;27;20451;-40
2021/05/14 04:14:49;;;;;;;1.77;1.57;;;20.70;73.00;;;;;;5143004;27;20477;-40
2021/05/14 04:17:25;;;;;;;2.63;2.10;;;20.60;73.60;;;;;;5143608;27;20419;-40
2021/05/14 04:19:58;;;;;;;2.57;2.10;;;20.50;74.60;;;;;;5142683;27;20445;-39
2021/05/14 04:22:29;;;;;;;2.40;2.20;;;20.50;74.90;;;;;;5143289;27;20489;-40
2021/05/14 04:25:00;;;;;;;4.00;2.07;;;20.50;75.40;;;;;;5143138;27;20468;-40
2021/05/14 04:27:30;;;;;;;2.00;1.90;;;20.40;75.70;;;;;;5142591;27;20933;-40
2021/05/14 04:30:01;;;;;;;2.80;2.50;;;20.40;76.30;;;;;;5142037;27;20509;-41
2021/05/14 04:32:31;;;;;;;2.80;2.60;;;20.30;77.50;;;;;;5142739;28;20487;-40
2021/05/14 04:35:02;;;;;;;2.40;2.00;;;20.30;77.10;;;;;;5142790;28;20438;-40
2021/05/14 04:37:33;;;;;;;2.13;1.93;;;20.20;78.00;;;;;;5142714;28;20423;-40
2021/05/14 04:40:04;;;;;;;2.80;2.07;;;20.20;78.60;;;;;;5142316;28;20448;-40
2021/05/14 04:42:35;;;;;;;2.17;2.07;;;20.20;78.90;;;;;;5138258;28;20902;-40
2021/05/14 04:45:07;;;;;;;2.23;2.13;;;20.10;79.60;;;;;;5141222;27;20455;-40
2021/05/14 04:47:37;;;;;;;2.47;2.07;;;20.00;80.10;;;;;;5139428;28;20533;-40
2021/05/14 04:50:10;;;;;;;5.27;2.40;;;20.00;80.30;;;;;;5141769;28;20430;-41
2021/05/14 04:52:42;;;;;;;2.63;2.43;;;20.00;80.90;;;;;;5142911;28;20447;-38
2021/05/14 04:55:13;;;;;;;2.70;2.07;;;19.90;81.70;;;;;;5142556;28;20474;-40
2021/05/14 04:57:44;;;;;;;2.17;1.97;;;19.90;81.80;;;;;;5143172;28;20526;-40
2021/05/14 05:00:15;;;;;;;2.60;2.10;;;19.80;82.00;;;;;;5141000;28;20457;-40
2021/05/14 05:02:46;;;;;;;2.70;1.60;;;19.80;82.40;;;;;;5142318;28;20479;-39
2021/05/14 05:05:16;;;;;;;2.23;2.03;;;19.70;82.80;;;;;;5142312;28;20487;-39
2021/05/14 05:07:48;;;;;;;3.03;2.67;;;19.70;83.00;;;;;;5143187;28;20537;-40
2021/05/14 05:10:20;;;;;;;2.50;2.30;;;19.70;83.80;;;;;;5142814;28;20502;-36
2021/05/14 05:12:51;;;;;;;4.00;2.20;;;19.60;83.90;;;;;;5143028;28;20480;-39
2021/05/14 05:15:21;;;;;;;2.33;2.13;;;19.60;84.40;;;;;;5142117;28;20528;-39
2021/05/14 05:17:52;;;;;;;3.33;2.07;;;19.60;85.40;;;;;;5142764;28;20435;-40
2021/05/14 05:20:22;;;;;;;2.40;2.20;;;19.50;85.90;;;;;;5141632;28;20450;-36
2021/05/14 05:22:55;;;;;;;3.07;2.17;;;19.50;86.00;;;;;;5142259;28;20591;-38
2021/05/14 05:25:25;;;;;;;2.50;2.00;;;19.40;86.50;;;;;;5141580;27;20429;-39
2021/05/14 05:27:59;;;;;;;1.90;1.67;;;19.50;86.30;;;;;;5141756;28;20445;-37
2021/05/14 05:30:30;;;;;;;2.23;2.00;;;19.40;86.80;;;;;;5141273;28;20445;-40
2021/05/14 05:33:00;;;;;;;3.93;2.00;;;19.40;87.60;;;;;;5142437;28;20995;-38
2021/05/14 05:35:31;;;;;;;2.17;2.00;;;19.30;87.90;;;;;;5142019;28;20431;-39
2021/05/14 05:38:02;;;;;;;2.13;2.03;;;19.30;88.20;;;;;;5142987;28;20460;-40
2021/05/14 05:40:33;;;;;;;2.67;2.30;;;19.30;88.30;;;;;;5145748;27;20412;-40
2021/05/14 05:43:03;;;;;;;2.70;2.00;;;19.20;88.50;;;;;;5145977;27;20452;-40
2021/05/14 05:45:34;;;;;;;3.97;2.00;;;19.10;89.60;;;;;;5144705;27;20454;-39
2021/05/14 05:48:08;;;;;;;3.17;2.30;;;19.10;90.20;;;;;;5146545;27;20445;-40
2021/05/14 05:50:38;;;;;;;2.03;1.93;;;19.20;89.90;;;;;;5144595;27;20784;-40
2021/05/14 05:53:11;;;;;;;2.27;2.07;;;19.00;90.00;;;;;;5145922;27;20530;-40
2021/05/14 05:55:41;;;;;;;2.50;2.00;;;19.00;90.30;;;;;;5146099;27;20467;-41
2021/05/14 05:58:14;;;;;;;4.40;2.20;;;18.90;90.70;;;;;;5145945;27;20472;-40
2021/05/14 06:00:44;;;;;;;2.47;1.80;;;18.80;90.80;;;;;;5144844;27;20471;-40
2021/05/14 06:03:16;;;;;;;1.97;1.87;;;18.90;90.90;;;;;;5146060;27;20427;-40
2021/05/14 06:05:47;;;;;;;2.27;2.07;;;18.80;91.10;;;;;;5144950;27;20445;-39
2021/05/14 06:08:18;;;;;;;2.60;1.97;;;18.80;91.30;;;;;;5146071;27;20433;-40
2021/05/14 06:10:51;;;;;;;2.00;1.70;;;18.80;91.40;;;;;;5146019;27;20459;-39
2021/05/14 06:13:22;;;;;;;1.97;1.77;;;18.70;91.70;;;;;;5145175;27;20472;-37
2021/05/14 06:15:53;;;;;;;2.13;1.93;;;18.60;92.00;;;;;;5144744;27;20510;-40
2021/05/14 06:18:24;;;;;;;3.73;2.10;;;18.60;92.40;;;;;;5134911;27;20424;-40
2021/05/14 06:20:58;;;;;;;2.80;2.50;;;18.50;92.60;;;;;;5126804;27;20572;-39
2021/05/14 06:23:30;;;;;;;2.83;1.90;;;18.50;93.20;;;;;;5145478;27;20445;-39
2021/05/14 06:26:00;;;;;;;2.10;2.00;;;18.40;93.50;;;;;;5144629;27;20441;-40
2021/05/14 06:28:31;;;;;;;4.33;2.30;;;18.40;93.80;;;;;;5144673;27;20484;-40
2021/05/14 06:31:05;;;;;;;3.83;2.00;;;18.40;94.40;;;;;;5141571;27;20454;-39
2021/05/14 06:33:35;;;;;;;2.10;1.93;;;18.20;95.00;;;;;;5144583;27;20538;-39
2021/05/14 06:36:07;;;;;;;2.00;1.90;;;18.20;95.70;;;;;;5145079;27;20460;-39
2021/05/14 06:38:38;;;;;;;2.00;1.90;;;18.10;96.30;;;;;;5145416;27;20473;-38
2021/05/14 06:41:09;;;;;;;2.20;2.00;;;18.10;96.80;;;;;;5145706;27;20441;-40
2021/05/14 06:43:39;;;;;;;1.93;1.70;;;18.00;97.40;;;;;;5144480;27;20457;-40
2021/05/14 06:46:10;;;;;;;1.73;1.63;;;18.10;97.80;;;;;;5144852;27;20457;-40
2021/05/14 06:48:42;;;;;;;2.43;2.07;;;18.00;98.20;;;;;;5144441;27;20559;-38
2021/05/14 06:51:12;;;;;;;2.63;1.70;;;18.00;98.80;;;;;;5143748;27;20455;-40
2021/05/14 06:53:44;;;;;;;1.80;1.70;;;17.90;99.10;;;;;;5144958;27;20480;-41
2021/05/14 06:56:14;;;;;;;2.93;1.90;;;17.90;99.40;;;;;;5145178;27;20450;-42
2021/05/14 06:58:45;;;;;;;1.70;1.60;;;17.80;99.80;;;;;;5144362;27;20478;-41
2021/05/14 07:01:15;;;;;;;2.47;2.27;;;17.90;99.90;;;;;;5144099;27;20474;-41
2021/05/14 07:03:46;;;;;;;2.80;2.60;;;17.90;99.90;;;;;;5144523;27;20447;-42
2021/05/14 07:06:16;;;;;;;2.93;2.30;;;17.90;99.90;;;;;;5142968;27;20437;-41
2021/05/14 07:08:49;;;;;;;2.93;2.17;;;17.80;99.90;;;;;;5145243;27;20463;-39
2021/05/14 07:11:20;;;;;;;3.73;2.00;;;17.80;99.90;;;;;;5134876;27;20440;-42
2021/05/14 07:13:50;;;;;;;1.80;1.70;;;17.80;99.90;;;;;;5143509;27;20488;-39
2021/05/14 07:16:20;;;;;;;1.93;1.80;;;17.70;99.90;;;;;;5143467;27;20551;-39
2021/05/14 07:18:51;;;;;;;3.10;2.77;;;17.70;99.90;;;;;;5143780;27;20460;-38
2021/05/14 07:21:22;;;;;;;3.17;1.67;;;17.70;99.90;;;;;;5143921;27;20433;-39
2021/05/14 07:23:57;;;;;;;1.97;1.87;;;17.70;99.90;;;;;;5145249;27;20499;-39
2021/05/14 07:26:28;;;;;;;2.70;2.13;;;17.70;99.90;;;;;;5142348;27;20461;-39
2021/05/14 07:29:06;;;;;;;1.60;1.50;;;17.60;99.90;;;;;;5143322;27;20462;-39
2021/05/14 07:31:36;;;;;;;2.00;1.90;;;17.60;99.90;;;;;;5144152;27;20527;-38
2021/05/14 07:34:07;;;;;;;1.97;1.67;;;17.60;99.90;;;;;;5144097;27;20480;-40
2021/05/14 07:36:38;;;;;;;2.67;2.20;;;17.60;99.90;;;;;;5144546;27;20463;-40
2021/05/14 07:39:09;;;;;;;3.67;2.23;;;17.60;99.90;;;;;;5144581;27;20452;-39
2021/05/14 07:41:40;;;;;;;2.07;1.87;;;17.50;99.90;;;;;;5144089;27;20451;-39
2021/05/14 07:44:11;;;;;;;1.97;1.87;;;17.50;99.90;;;;;;5143098;27;20448;-38
2021/05/14 07:46:42;;;;;;;2.73;1.70;;;17.50;99.90;;;;;;5144127;27;20532;-40
2021/05/14 07:49:13;;;;;;;1.53;1.43;;;17.50;99.90;;;;;;5143279;27;20456;-39
2021/05/14 07:51:44;;;;;;;1.83;1.73;;;17.40;99.90;;;;;;5144220;27;20437;-40
2021/05/14 07:54:15;;;;;;;2.77;1.87;;;17.40;99.90;;;;;;5144647;27;20506;-38
2021/05/14 07:56:46;;;;;;;1.90;1.80;;;17.30;99.90;;;;;;5143873;27;20453;-38
2021/05/14 07:59:21;;;;;;;2.70;1.90;;;17.30;99.90;;;;;;5142637;27;20569;-37
2021/05/14 08:01:52;;;;;;;2.53;1.83;;;17.30;99.90;;;;;;5143296;27;20471;-39
2021/05/14 08:04:22;;;;;;;1.87;1.77;;;17.30;99.90;;;;;;5143816;27;20981;-39
2021/05/14 08:06:53;;;;;;;1.70;1.60;;;17.30;99.90;;;;;;5143239;27;20441;-39
2021/05/14 08:09:25;;;;;;;2.20;2.00;;;17.20;99.90;;;;;;5144342;27;20451;-40
2021/05/14 08:11:55;;;;;;;2.27;2.03;;;17.20;99.90;;;;;;5143460;27;20509;-39
2021/05/14 08:14:26;;;;;;;2.33;1.97;;;17.10;99.90;;;;;;5132427;27;20444;-39
2021/05/14 08:16:56;;;;;;;3.43;2.23;;;17.10;99.90;;;;;;5142746;27;20498;-39
2021/05/14 08:19:28;;;;;;;2.03;1.60;;;17.00;99.90;;;;;;5143403;27;20505;-39
2021/05/14 08:21:58;;;;;;;2.30;2.00;;;17.00;99.90;;;;;;5131740;27;20590;-41
2021/05/14 08:24:30;;;;;;;2.40;2.20;;;16.90;99.90;;;;;;5132307;27;20519;-38
2021/05/14 08:27:01;;;;;;;2.47;2.20;;;16.90;99.90;;;;;;5141004;27;20468;-39
2021/05/14 08:29:31;;;;;;;3.53;2.53;;;16.80;99.90;;;;;;5140123;27;20478;-39
2021/05/14 08:32:02;;;;;;;2.60;2.27;;;16.70;99.90;;;;;;5137804;28;20436;-37
2021/05/14 08:34:32;;;;;;;2.77;1.80;;;16.70;99.90;;;;;;5127060;28;20919;-37
2021/05/14 08:37:03;;;;;;;3.23;2.10;;;16.70;99.90;;;;;;5131948;28;20457;-38
2021/05/14 08:39:34;;;;;;;2.10;1.90;;;16.60;99.90;;;;;;5128338;28;20481;-37
2021/05/14 08:42:06;;;;;;;2.63;2.20;;;16.60;99.90;;;;;;5137091;28;20453;-40
2021/05/14 08:44:37;;;;;;;2.33;2.10;;;16.50;99.90;;;;;;5134156;28;20594;-38
2021/05/14 08:47:08;;;;;;;2.17;1.97;;;16.50;99.90;;;;;;5125455;28;20456;-38
2021/05/14 08:49:39;;;;;;;2.53;2.20;;;16.60;99.90;;;;;;5127927;28;20471;-38
2021/05/14 08:52:11;;;;;;;2.23;2.03;;;16.50;99.90;;;;;;5137256;28;20761;-39
2021/05/14 08:54:44;;;;;;;2.90;2.00;;;16.50;99.90;;;;;;5125461;28;20472;-38
2021/05/14 08:57:15;;;;;;;3.47;2.17;;;16.40;99.90;;;;;;5136000;28;20460;-39
2021/05/14 08:59:45;;;;;;;2.13;1.93;;;16.30;99.90;;;;;;5127058;28;20501;-39
2021/05/14 09:02:16;;;;;;;2.30;1.73;;;16.30;99.90;;;;;;5133014;28;20465;-40
2021/05/14 09:04:47;;;;;;;2.23;2.00;;;16.30;99.90;;;;;;5130370;28;20446;-39
2021/05/14 09:07:19;;;;;;;2.20;2.10;;;16.20;99.90;;;;;;5129493;28;20454;-38
2021/05/14 09:10:09;;;;;;;2.80;1.93;;;16.10;99.90;;;;;;5133913;28;20472;-39
2021/05/14 09:12:40;;;;;;;2.37;1.90;;;16.10;99.90;;;;;;5129312;28;20534;-41
2021/05/14 09:15:28;;;;;;;2.20;1.97;;;16.00;99.90;;;;;;5132333;27;20453;-39
2021/05/14 09:18:09;;;;;;;2.33;2.10;;;16.00;99.90;;;;;;5141551;27;20563;-36
2021/05/14 09:20:41;;;;;;;3.20;2.37;;;16.00;99.90;;;;;;5132358;27;20454;-39
2021/05/14 09:23:33;;;;;;;3.10;2.40;;;16.00;99.90;;;;;;5132291;27;21122;-39
2021/05/14 09:26:06;;;;;;;3.60;2.60;;;16.00;99.90;;;;;;5138965;27;20445;-38
2021/05/14 09:28:38;;;;;;;2.80;2.50;;;15.90;99.90;;;;;;5141346;27;20465;-39
2021/05/14 09:31:12;;;;;;;4.33;2.03;;;15.90;99.90;;;;;;5142154;27;20904;-39
2021/05/14 09:33:43;;;;;;;2.50;2.20;;;15.80;99.90;;;;;;5142383;27;20484;-39
2021/05/14 09:36:16;;;;;;;4.17;2.53;;;15.80;99.90;;;;;;5137523;27;20453;-39
2021/05/14 09:38:49;;;;;;;4.33;2.43;;;15.70;99.90;;;;;;5135648;27;20448;-38
2021/05/14 09:41:36;;;;;;;4.00;2.40;;;15.70;99.90;;;;;;5141053;27;20772;-40
2021/05/14 09:44:09;;;;;;;2.40;2.23;;;15.60;99.90;;;;;;5140036;27;20466;-39
2021/05/14 09:46:41;;;;;;;2.27;2.10;;;15.60;99.90;;;;;;5139045;27;20449;-38
2021/05/14 09:49:13;;;;;;;2.77;2.50;;;15.60;99.90;;;;;;5139895;27;20510;-38
2021/05/14 09:51:51;;;;;;;4.20;2.50;;;15.60;99.90;;;;;;5137618;27;20811;-36
2021/05/14 09:54:27;;;;;;;2.53;2.03;;;15.60;99.90;;;;;;5135964;27;20531;-39
2021/05/14 09:57:30;;;;;;;2.13;1.93;;;15.50;99.90;;;;;;5136118;27;20513;-38
2021/05/14 10:00:03;;;;;;;2.73;2.10;;;15.40;99.90;;;;;;5135683;27;20461;-39
2021/05/14 10:02:36;;;;;;;3.17;2.50;;;15.40;99.90;;;;;;5131494;27;20454;-39
2021/05/14 10:05:10;;;;;;;2.47;2.27;;;15.40;99.90;;;;;;5130346;27;20793;-39
2021/05/14 10:07:42;;;;;;;2.53;2.33;;;15.30;99.90;;;;;;5144091;27;20449;-39
2021/05/14 10:10:13;;;;;;;2.63;2.43;;;15.30;99.90;;;;;;5133479;27;20449;-39
2021/05/14 10:12:45;;;;;;;2.40;2.20;;;15.30;99.90;;;;;;5144601;27;20449;-37
2021/05/14 10:15:15;;;;;;;3.50;2.30;;;15.20;99.90;;;;;;5131683;27;20458;-40
2021/05/14 10:17:51;;;;;;;2.43;2.00;;;15.30;99.90;;;;;;5142994;27;20452;-38
2021/05/14 10:20:26;;;;;;;5.40;2.67;;;15.30;99.90;;;;;;5138543;27;20441;-39
2021/05/14 10:22:59;;;;;;;2.27;2.10;;;15.30;99.90;;;;;;5128658;27;20465;-38
2021/05/14 10:25:44;;;;;;;2.57;2.37;;;15.20;99.90;;;;;;5129797;27;20564;-39
2021/05/14 10:28:18;;;;;;;2.17;1.97;;;15.20;99.90;;;;;;5139372;27;20556;-39
2021/05/14 10:31:20;;;;;;;3.10;2.53;;;15.10;99.90;;;;;;5135755;27;20942;-39
2021/05/14 10:34:00;;;;;;;4.17;2.37;;;15.00;99.90;;;;;;5138695;27;20509;-39
2021/05/14 10:36:57;;;;;;;4.40;2.70;;;15.00;99.90;;;;;;5132305;27;20456;-40
2021/05/14 10:39:38;;;;;;;5.13;3.20;;;14.90;99.90;;;;;;5134974;27;20444;-39
2021/05/14 10:42:12;;;;;;;2.53;2.33;;;14.90;99.90;;;;;;5141252;27;20502;-38
2021/05/14 10:44:53;;;;;;;3.00;2.20;;;14.90;99.90;;;;;;5136582;27;20793;-39
2021/05/14 10:47:47;;;;;;;3.67;2.53;;;14.80;99.90;;;;;;5136250;27;20444;-38
2021/05/14 10:50:35;;;;;;;2.40;2.20;;;14.70;99.90;;;;;;5130930;27;20453;-38
2021/05/14 10:53:28;;;;;;;2.67;2.47;;;14.70;99.90;;;;;;5132366;27;20592;-40
2021/05/14 10:56:28;;;;;;;2.60;2.40;;;14.60;99.90;;;;;;5130833;27;20516;-37
2021/05/14 10:59:12;;;;;;;2.53;2.17;;;14.60;99.90;;;;;;5129103;27;20450;-39
2021/05/14 11:01:46;;;;;;;3.07;2.40;;;14.50;99.90;;;;;;5138588;27;20449;-38
2021/05/14 11:04:45;;;;;;;2.67;2.23;;;14.50;99.90;;;;;;5129624;27;20445;-40
2021/05/14 11:07:34;;;;;;;2.60;2.40;;;14.40;99.90;;;;;;5143194;27;20509;-37
2021/05/14 11:10:27;;;;;;;2.30;1.90;;;14.40;99.90;;;;;;5144563;27;20441;-39
2021/05/14 11:12:58;;;;;;;2.50;2.30;;;14.30;99.90;;;;;;5144487;27;20449;-38
2021/05/14 11:15:36;;;;;;;2.37;2.17;;;14.30;99.90;;;;;;5143386;27;20467;-38
2021/05/14 11:18:35;;;;;;;4.07;2.27;;;14.30;99.90;;;;;;5139151;27;20506;-39
2021/05/14 11:21:05;;;;;;;3.17;2.17;;;14.20;99.90;;;;;;5068669;28;20448;-39
2021/05/14 11:23:38;;;;;;;3.10;2.30;;;14.20;99.90;;;;;;5079614;28;20447;-39
2021/05/14 11:26:11;;;;;;;3.63;2.47;;;14.10;99.90;;;;;;5076055;28;20492;-38
2021/05/14 11:28:45;;;;;;;2.70;2.50;;;14.10;99.90;;;;;;5075621;28;20463;-37
2021/05/14 11:31:20;;;;;;;3.20;2.23;;;14.10;99.90;;;;;;5076705;28;20536;-44
2021/05/14 11:33:53;;;;;;;2.93;2.70;;;14.00;99.90;;;;;;5074393;28;20490;-39
2021/05/14 11:36:24;;;;;;;3.67;2.50;;;14.10;99.90;;;;;;5073596;28;20920;-39
2021/05/14 11:38:57;;;;;;;2.00;1.90;;;14.10;99.90;;;;;;5075358;28;20498;-39
2021/05/14 11:41:28;;;;;;;2.23;2.03;;;14.00;99.90;;;;;;5078159;28;20447;-38
2021/05/14 11:44:00;;;;;;;2.27;2.07;;;14.10;99.90;;;;;;5078671;28;20498;-39
2021/05/14 11:46:33;;;;;;;3.60;2.60;;;14.10;99.90;;;;;;5075250;28;20496;-40
2021/05/14 11:49:09;;;;;;;2.57;2.37;;;14.10;99.90;;;;;;5073681;28;20455;-39
2021/05/14 11:51:47;;;;;;;3.80;2.60;;;14.10;99.90;;;;;;5069334;28;20505;-37
2021/05/14 11:54:17;;;;;;;4.87;2.10;;;14.10;99.90;;;;;;5065537;28;20511;-39
2021/05/14 11:56:47;;;;;;;2.87;2.40;;;14.00;99.90;;;;;;5097417;27;20450;-37
2021/05/14 11:59:24;;;;;;;2.83;2.20;;;14.00;99.90;;;;;;5125287;27;20453;-39
2021/05/14 12:01:54;;;;;;;2.57;2.37;;;14.00;99.90;;;;;;5126488;27;20445;-39
2021/05/14 12:04:26;;;;;;;2.40;2.20;;;14.00;99.90;;;;;;5135666;27;20551;-38
2021/05/14 12:06:57;;;;;;;3.00;2.47;;;14.00;99.90;;;;;;5142338;27;20537;-39
2021/05/14 12:09:28;;;;;;;3.60;2.63;;;14.00;99.90;;;;;;5142614;27;20457;-39
2021/05/14 12:11:59;;;;;;;2.80;2.13;;;14.00;99.90;;;;;;5140926;27;20474;-40
2021/05/14 12:14:29;;;;;;;2.40;2.20;;;14.00;99.90;;;;;;5142919;27;20507;-39
2021/05/14 12:17:02;;;;;;;2.50;2.30;;;13.90;99.90;;;;;;5143486;27;20480;-40
2021/05/14 12:19:47;;;;;;;2.60;2.40;;;13.90;99.90;;;;;;5142812;27;20523;-38
2021/05/14 12:22:18;;;;;;;2.80;2.60;;;13.80;99.90;;;;;;5140244;27;20453;-39
2021/05/14 12:24:50;;;;;;;3.00;2.70;;;13.80;99.90;;;;;;5143457;27;20445;-37
2021/05/14 12:27:22;;;;;;;3.13;2.83;;;13.70;99.90;;;;;;5132388;27;20452;-39
2021/05/14 12:30:01;;;;;;;2.50;2.30;;;13.70;99.90;;;;;;5141998;27;20552;-39
2021/05/14 12:32:31;;;;;;;2.50;2.30;;;13.70;99.90;;;;;;5144080;27;20486;-39
2021/05/14 12:35:03;;;;;;;3.63;3.33;;;13.60;99.90;;;;;;5142499;28;20484;-39
2021/05/14 12:37:33;;;;;;;2.67;2.47;;;13.60;99.90;;;;;;5143486;28;20445;-40
2021/05/14 12:40:05;;;;;;;2.93;2.60;;;13.70;99.90;;;;;;5142588;28;20936;-39
2021/05/14 12:42:41;;;;;;;3.00;2.53;;;13.70;99.90;;;;;;5142734;28;20460;-39
2021/05/14 12:45:12;;;;;;;3.57;2.33;;;13.60;99.90;;;;;;5142139;28;20558;-39
2021/05/14 12:47:43;;;;;;;2.77;2.40;;;13.60;99.90;;;;;;5143831;28;20437;-38
2021/05/14 12:50:26;;;;;;;2.53;2.33;;;13.60;99.90;;;;;;5144657;27;20505;-38
2021/05/14 12:52:56;;;;;;;2.30;2.10;;;13.60;99.90;;;;;;5147143;27;20479;-38
2021/05/14 12:55:27;;;;;;;3.00;2.77;;;13.60;99.90;;;;;;5146928;27;20480;-40
2021/05/14 12:58:01;;;;;;;3.43;2.73;;;13.60;99.90;;;;;;5144718;27;20505;-37
2021/05/14 13:00:36;;;;;;;3.77;2.57;;;13.60;99.90;;;;;;5146378;27;20485;-35
2021/05/14 13:03:09;;;;;;;2.93;2.43;;;13.60;99.90;;;;;;5147220;27;20439;-39
2021/05/14 13:05:42;;;;;;;2.57;2.20;;;13.70;99.90;;;;;;5146978;27;20449;-37
2021/05/14 13:08:27;;;;;;;3.00;2.73;;;13.70;99.90;;;;;;5147118;27;20459;-40
2021/05/14 13:11:03;;;;;;;3.90;2.13;;;13.80;99.90;;;;;;5146756;27;20476;-39
2021/05/14 13:13:35;;;;;;;2.30;2.10;;;13.80;99.90;;;;;;5146179;27;20770;-39
2021/05/14 13:16:06;;;;;;;2.67;2.40;;;13.80;99.90;;;;;;5147208;27;20508;-39